createdAt,value
2024-02-11T00:00:01.995Z,960.4254
2024-02-11T00:01:03.812Z,960.3969
2024-02-11T00:02:03.882Z,960.4539
2024-02-11T00:03:02.925Z,960.4539
2024-02-11T00:04:05.653Z,960.2827
2024-02-11T00:05:01.670Z,960.2827
2024-02-11T00:06:03.333Z,960.3232
2024-02-11T00:07:03.365Z,960.3924
2024-02-11T00:08:01.855Z,960.4281
2024-02-11T00:09:01.945Z,960.2793
2024-02-11T00:10:03.649Z,960.3709
2024-02-11T00:11:03.834Z,960.2342
2024-02-11T00:12:03.864Z,960.3544
2024-02-11T00:13:03.073Z,960.2688
2024-02-11T00:14:01.497Z,960.3544
2024-02-11T00:15:03.145Z,960.4307
2024-02-11T00:16:01.651Z,960.4307
2024-02-11T00:17:01.964Z,960.3319
2024-02-11T00:18:03.553Z,960.4878
2024-02-11T00:19:03.664Z,960.3631
2024-02-11T00:20:03.737Z,960.3345
2024-02-11T00:21:03.834Z,960.4702
2024-02-11T00:22:03.037Z,960.3631
2024-02-11T00:23:03.007Z,960.2774
2024-02-11T00:24:01.448Z,960.4262
2024-02-11T00:25:03.197Z,960.38
2024-02-11T00:26:01.714Z,960.3409
2024-02-11T00:27:01.810Z,960.4717
2024-02-11T00:28:01.864Z,960.2894
2024-02-11T00:29:03.649Z,960.4037
2024-02-11T00:30:02.093Z,960.4322
2024-02-11T00:31:03.878Z,960.3515
2024-02-11T00:32:02.973Z,960.3466
2024-02-11T00:33:01.559Z,960.3691
2024-02-11T00:34:03.388Z,960.2203
2024-02-11T00:35:03.400Z,960.4548
2024-02-11T00:36:01.776Z,960.3845
2024-02-11T00:37:01.823Z,960.2297
2024-02-11T00:38:03.549Z,960.2308
2024-02-11T00:39:02.027Z,960.3819
2024-02-11T00:40:03.782Z,960.1771
2024-02-11T00:41:03.978Z,960.2688
2024-02-11T00:42:02.983Z,960.2023
2024-02-11T00:43:03.061Z,960.1632
2024-02-11T00:44:03.215Z,960.2297
2024-02-11T00:45:01.672Z,960.1737
2024-02-11T00:46:03.420Z,960.1737
2024-02-11T00:47:01.929Z,960.2023
2024-02-11T00:48:03.692Z,960.2973
2024-02-11T00:49:02.135Z,960.1865
2024-02-11T00:50:03.898Z,960.1745
2024-02-11T00:51:02.978Z,960.4254
2024-02-11T00:52:03.021Z,960.324
2024-02-11T00:53:01.552Z,960.2109
2024-02-11T00:54:01.664Z,960.2488
2024-02-11T00:55:01.723Z,960.2335
2024-02-11T00:56:01.926Z,960.1287
2024-02-11T00:57:01.946Z,960.2263
2024-02-11T00:58:03.706Z,960.1918
2024-02-11T00:59:02.189Z,960.1538
2024-02-11T01:00:03.862Z,960.2965
2024-02-11T01:01:01.383Z,960.1478
2024-02-11T01:02:03.076Z,960.1121
2024-02-11T01:03:03.142Z,960.1632
2024-02-11T01:04:01.694Z,960.1918
2024-02-11T01:05:03.796Z,960.1512
2024-02-11T01:06:01.904Z,960.3164
2024-02-11T01:07:01.997Z,960.1617
2024-02-11T01:08:02.119Z,960.2117
2024-02-11T01:09:03.803Z,960.2687
2024-02-11T01:10:01.302Z,960.2128
2024-02-11T01:11:03.133Z,960.4351
2024-02-11T01:12:01.542Z,960.3588
2024-02-11T01:13:01.612Z,960.3588
2024-02-11T01:14:03.395Z,960.3588
2024-02-11T01:15:03.481Z,960.3588
2024-02-11T01:16:01.950Z,960.3194
2024-02-11T01:17:03.683Z,960.2147
2024-02-11T01:18:02.168Z,960.4714
2024-02-11T01:19:02.333Z,960.2883
2024-02-11T01:20:01.386Z,960.3036
2024-02-11T01:21:01.445Z,960.2796
2024-02-11T01:22:01.548Z,960.1689
2024-02-11T01:23:01.858Z,960.2139
2024-02-11T01:24:03.403Z,960.2425
2024-02-11T01:25:03.531Z,960.3851
2024-02-11T01:26:02.048Z,960.4991
2024-02-11T01:27:02.091Z,960.2695
2024-02-11T01:28:02.178Z,960.3918
2024-02-11T01:29:02.891Z,960.3002
2024-02-11T01:30:01.365Z,960.4439
2024-02-11T01:31:01.464Z,960.4248
2024-02-11T01:32:01.614Z,960.3107
2024-02-11T01:33:01.733Z,960.2927
2024-02-11T01:34:03.491Z,960.5493
2024-02-11T01:35:01.957Z,960.3827
2024-02-11T01:36:02.052Z,960.3088
2024-02-11T01:37:02.070Z,960.2102
2024-02-11T01:38:03.942Z,960.2886
2024-02-11T01:39:02.962Z,960.2552
2024-02-11T01:40:01.415Z,960.2886
2024-02-11T01:41:01.588Z,960.2886
2024-02-11T01:42:03.251Z,960.1757
2024-02-11T01:43:03.354Z,960.3347
2024-02-11T01:44:01.871Z,960.1791
2024-02-11T01:45:02.010Z,960.2586
2024-02-11T01:46:02.041Z,960.1824
2024-02-11T01:47:02.144Z,960.2499
2024-02-11T01:48:02.305Z,960.4149
2024-02-11T01:49:03.035Z,960.3733
2024-02-11T01:50:03.195Z,960.2008
2024-02-11T01:51:01.591Z,960.2732
2024-02-11T01:52:03.289Z,960.3976
2024-02-11T01:53:03.444Z,960.3822
2024-02-11T01:54:01.863Z,960.4392
2024-02-11T01:55:02.038Z,960.2267
2024-02-11T01:56:02.137Z,960.4354
2024-02-11T01:57:02.181Z,960.2076
2024-02-11T01:58:01.270Z,960.2301
2024-02-11T01:59:03.012Z,960.1506
2024-02-11T02:00:03.292Z,960.5055
2024-02-11T02:01:03.380Z,960.4579
2024-02-11T02:02:01.761Z,960.4114
2024-02-11T02:03:01.847Z,960.302
2024-02-11T02:04:01.975Z,960.4549
2024-02-11T02:05:04.207Z,960.4204
2024-02-11T02:06:02.298Z,960.4204
2024-02-11T02:07:02.249Z,960.3859
2024-02-11T02:08:03.018Z,960.26
2024-02-11T02:09:03.076Z,960.2859
2024-02-11T02:10:03.202Z,960.3072
2024-02-11T02:11:03.376Z,960.4945
2024-02-11T02:12:01.743Z,960.3806
2024-02-11T02:13:01.890Z,960.2263
2024-02-11T02:14:02.032Z,960.3402
2024-02-11T02:15:03.677Z,960.2713
2024-02-11T02:16:03.833Z,960.3057
2024-02-11T02:17:02.942Z,960.2713
2024-02-11T02:18:03.104Z,960.3566
2024-02-11T02:19:03.223Z,960.499
2024-02-11T02:20:03.250Z,960.4136
2024-02-11T02:21:01.722Z,960.2402
2024-02-11T02:22:01.834Z,960.3196
2024-02-11T02:23:03.627Z,960.3929
2024-02-11T02:24:01.998Z,960.3765
2024-02-11T02:25:02.103Z,960.342
2024-02-11T02:26:02.291Z,960.342
2024-02-11T02:27:02.984Z,960.4154
2024-02-11T02:28:03.042Z,960.3678
2024-02-11T02:29:01.558Z,960.2918
2024-02-11T02:30:03.260Z,960.3674
2024-02-11T02:31:03.350Z,960.3412
2024-02-11T02:32:01.888Z,960.2843
2024-02-11T02:33:02.073Z,960.239
2024-02-11T02:34:02.043Z,960.4191
2024-02-11T02:35:02.238Z,960.3682
2024-02-11T02:36:02.200Z,960.3397
2024-02-11T02:37:02.994Z,960.4984
2024-02-11T02:38:03.370Z,960.202
2024-02-11T02:39:03.331Z,960.3098
2024-02-11T02:40:03.290Z,960.2589
2024-02-11T02:41:03.451Z,960.2753
2024-02-11T02:42:03.489Z,960.2432
2024-02-11T02:43:01.960Z,960.2536
2024-02-11T02:44:02.084Z,960.1504
2024-02-11T02:45:03.853Z,960.3958
2024-02-11T02:46:02.916Z,960.3674
2024-02-11T02:47:01.481Z,960.2226
2024-02-11T02:48:01.580Z,960.2226
2024-02-11T02:49:01.700Z,960.1088
2024-02-11T02:50:01.717Z,960.1074
2024-02-11T02:51:03.480Z,960.1986
2024-02-11T02:52:01.894Z,960.2375
2024-02-11T02:53:03.639Z,960.1452
2024-02-11T02:54:03.706Z,960.1403
2024-02-11T02:55:02.210Z,960.2682
2024-02-11T02:56:01.343Z,960.2114
2024-02-11T02:57:01.476Z,960.1732
2024-02-11T02:58:03.169Z,960.1687
2024-02-11T02:59:03.281Z,960.1261
2024-02-11T03:00:01.737Z,960.1545
2024-02-11T03:01:03.504Z,959.984
2024-02-11T03:02:01.952Z,960.1403
2024-02-11T03:03:03.729Z,960.1496
2024-02-11T03:04:02.174Z,960.1508
2024-02-11T03:05:02.338Z,960.1826
2024-02-11T03:06:02.994Z,960.0913
2024-02-11T03:07:01.473Z,960.0853
2024-02-11T03:08:01.603Z,960.0214
2024-02-11T03:09:03.317Z,960.0225
2024-02-11T03:10:01.794Z,960.0827
2024-02-11T03:11:03.528Z,959.9418
2024-02-11T03:12:01.977Z,959.9915
2024-02-11T03:13:03.715Z,960.2876
2024-02-11T03:14:02.237Z,960.0543
2024-02-11T03:15:01.342Z,960.1123
2024-02-11T03:16:01.362Z,960.162
2024-02-11T03:17:01.526Z,960.1052
2024-02-11T03:18:01.678Z,960.0872
2024-02-11T03:19:01.752Z,960.0364
2024-02-11T03:20:01.876Z,960.1501
2024-02-11T03:21:03.530Z,960.1052
2024-02-11T03:22:03.687Z,960.0708
2024-02-11T03:23:02.230Z,960.1844
2024-02-11T03:24:03.833Z,959.9901
2024-02-11T03:25:02.980Z,960.1889
2024-02-11T03:26:03.159Z,960.0469
2024-02-11T03:27:01.521Z,959.9546
2024-02-11T03:28:03.259Z,960.1321
2024-02-11T03:29:01.768Z,960.1097
2024-02-11T03:30:01.848Z,959.8574
2024-02-11T03:31:01.925Z,959.971
2024-02-11T03:32:03.729Z,960.106
2024-02-11T03:33:02.258Z,960.0278
2024-02-11T03:34:04.127Z,959.9639
2024-02-11T03:35:01.442Z,960.106
2024-02-11T03:36:03.127Z,960.3332
2024-02-11T03:37:01.569Z,960.2644
2024-02-11T03:38:03.386Z,960.2644
2024-02-11T03:39:01.786Z,960.2644
2024-02-11T03:40:01.890Z,960.2644
2024-02-11T03:41:02.008Z,960.3213
2024-02-11T03:42:02.054Z,960.2644
2024-02-11T03:43:02.184Z,960.2644
2024-02-11T03:44:01.346Z,960.094
2024-02-11T03:45:01.397Z,960.2644
2024-02-11T03:46:01.501Z,960.2644
2024-02-11T03:47:01.606Z,960.0854
2024-02-11T03:48:01.747Z,960.199
2024-02-11T03:49:02.045Z,960.1303
2024-02-11T03:50:02.047Z,960.091
2024-02-11T03:51:02.060Z,960.2319
2024-02-11T03:52:02.125Z,960.091
2024-02-11T03:53:02.246Z,960.0627
2024-02-11T03:54:02.975Z,960.0343
2024-02-11T03:55:01.468Z,960.1751
2024-02-11T03:56:01.600Z,960.0167
2024-02-11T03:57:01.608Z,960.1019
2024-02-11T03:58:01.745Z,960.1303
2024-02-11T03:59:03.531Z,960.1183
2024-02-11T04:00:03.544Z,960.2439
2024-02-11T04:01:02.106Z,960.0451
2024-02-11T04:02:03.849Z,960.1183
2024-02-11T04:03:03.870Z,960.2603
2024-02-11T04:04:03.063Z,960.2319
2024-02-11T04:05:03.190Z,960.375
2024-02-11T04:06:01.561Z,960.2259
2024-02-11T04:07:01.626Z,960.2046
2024-02-11T04:08:03.434Z,960.1478
2024-02-11T04:09:03.520Z,960.2046
2024-02-11T04:10:01.979Z,960.2827
2024-02-11T04:11:02.155Z,960.3963
2024-02-11T04:12:02.144Z,960.1478
2024-02-11T04:13:02.910Z,960.2614
2024-02-11T04:14:03.146Z,960.2614
2024-02-11T04:15:03.153Z,960.2614
2024-02-11T04:16:01.636Z,960.2046
2024-02-11T04:17:03.399Z,960.2543
2024-02-11T04:18:03.590Z,960.3679
2024-02-11T04:19:01.947Z,960.3336
2024-02-11T04:20:02.093Z,960.2032
2024-02-11T04:21:03.744Z,960.2315
2024-02-11T04:22:02.223Z,960.3167
2024-02-11T04:23:01.482Z,960.2599
2024-02-11T04:24:03.083Z,960.2719
2024-02-11T04:25:03.159Z,960.2614
2024-02-11T04:26:01.699Z,960.2046
2024-02-11T04:27:01.735Z,960.3979
2024-02-11T04:28:01.896Z,960.1718
2024-02-11T04:29:02.215Z,960.4677
2024-02-11T04:30:03.672Z,960.4917
2024-02-11T04:31:03.799Z,960.2629
2024-02-11T04:32:01.366Z,960.4109
2024-02-11T04:33:03.028Z,960.341
2024-02-11T04:34:01.507Z,960.7758
2024-02-11T04:35:01.616Z,960.4677
2024-02-11T04:36:03.299Z,960.5754
2024-02-11T04:37:03.405Z,960.5814
2024-02-11T04:38:03.564Z,960.547
2024-02-11T04:39:03.622Z,960.547
2024-02-11T04:40:02.073Z,960.4711
2024-02-11T04:41:02.383Z,960.4995
2024-02-11T04:42:01.303Z,960.5399
2024-02-11T04:43:03.039Z,960.5399
2024-02-11T04:44:01.519Z,960.3291
2024-02-11T04:45:01.574Z,960.4711
2024-02-11T04:46:03.342Z,960.547
2024-02-11T04:47:03.465Z,960.4917
2024-02-11T04:48:03.680Z,960.3781
2024-02-11T04:49:03.719Z,960.4065
2024-02-11T04:50:03.782Z,960.3781
2024-02-11T04:51:03.840Z,960.3272
2024-02-11T04:52:01.315Z,960.3284
2024-02-11T04:53:03.235Z,960.4988
2024-02-11T04:54:01.508Z,960.4136
2024-02-11T04:55:03.264Z,960.4753
2024-02-11T04:56:01.811Z,960.4065
2024-02-11T04:57:01.877Z,960.3332
2024-02-11T04:58:01.933Z,960.4409
2024-02-11T04:59:02.132Z,960.442
2024-02-11T05:00:02.149Z,960.3213
2024-02-11T05:01:01.276Z,960.3568
2024-02-11T05:02:01.392Z,960.3781
2024-02-11T05:03:01.452Z,960.3781
2024-02-11T05:04:03.261Z,960.442
2024-02-11T05:05:03.358Z,960.5485
2024-02-11T05:06:03.441Z,960.6053
2024-02-11T05:07:01.859Z,960.3781
2024-02-11T05:08:03.640Z,960.4065
2024-02-11T05:09:02.288Z,960.4917
2024-02-11T05:10:03.801Z,960.5201
2024-02-11T05:11:01.288Z,960.4917
2024-02-11T05:12:03.091Z,960.5769
2024-02-11T05:13:01.459Z,960.4917
2024-02-11T05:14:01.655Z,960.4917
2024-02-11T05:15:01.690Z,960.3497
2024-02-11T05:16:01.804Z,960.4917
2024-02-11T05:17:03.651Z,960.3781
2024-02-11T05:18:02.189Z,960.4917
2024-02-11T05:19:03.836Z,960.2928
2024-02-11T05:20:03.941Z,960.4065
2024-02-11T05:21:02.979Z,960.4136
2024-02-11T05:22:03.086Z,960.454
2024-02-11T05:23:03.240Z,960.4162
2024-02-11T05:24:03.248Z,960.4091
2024-02-11T05:25:01.754Z,960.485
2024-02-11T05:26:02.081Z,960.2353
2024-02-11T05:27:01.966Z,960.3265
2024-02-11T05:28:02.126Z,960.2413
2024-02-11T05:29:02.176Z,960.1844
2024-02-11T05:31:01.349Z,960.3609
2024-02-11T05:32:01.520Z,960.368
2024-02-11T05:33:03.409Z,960.3489
2024-02-11T05:34:01.945Z,960.5538
2024-02-11T05:35:01.807Z,960.5538
2024-02-11T05:36:01.851Z,960.5643
2024-02-11T05:37:03.543Z,960.3403
2024-02-11T05:38:03.758Z,960.5037
2024-02-11T05:39:02.186Z,960.5769
2024-02-11T05:40:02.912Z,960.4349
2024-02-11T05:41:01.396Z,960.4917
2024-02-11T05:42:03.134Z,960.4917
2024-02-11T05:43:01.635Z,960.5485
2024-02-11T05:44:01.735Z,960.3575
2024-02-11T05:45:01.854Z,960.6337
2024-02-11T05:46:01.895Z,960.4349
2024-02-11T05:47:01.990Z,960.4917
2024-02-11T05:48:02.155Z,960.7189
2024-02-11T05:49:04.796Z,960.5201
2024-02-11T05:50:03.071Z,960.5201
2024-02-11T05:51:01.406Z,960.5201
2024-02-11T05:52:03.156Z,960.3766
2024-02-11T05:53:01.682Z,960.4023
2024-02-11T05:54:03.406Z,960.3646
2024-02-11T05:55:01.843Z,960.541
2024-02-11T05:56:03.641Z,960.5126
2024-02-11T05:57:03.689Z,960.5399
2024-02-11T05:58:02.122Z,960.4711
2024-02-11T05:59:03.989Z,960.5279
2024-02-11T06:00:03.027Z,960.5727
2024-02-11T06:01:03.145Z,960.517
2024-02-11T06:02:03.307Z,960.4886
2024-02-11T06:03:01.768Z,960.5454
2024-02-11T06:04:03.467Z,960.4815
2024-02-11T06:05:03.509Z,960.6022
2024-02-11T06:06:03.659Z,960.6022
2024-02-11T06:07:02.130Z,960.4139
2024-02-11T06:08:03.671Z,960.5215
2024-02-11T06:09:01.502Z,960.6351
2024-02-11T06:10:01.418Z,960.4277
2024-02-11T06:11:01.524Z,960.4337
2024-02-11T06:12:01.656Z,960.3649
2024-02-11T06:13:01.711Z,960.5188
2024-02-11T06:14:03.496Z,960.4904
2024-02-11T06:15:01.910Z,960.4964
2024-02-11T06:16:03.661Z,960.5876
2024-02-11T06:17:02.246Z,960.5816
2024-02-11T06:18:03.893Z,960.5024
2024-02-11T06:19:01.508Z,960.5783
2024-02-11T06:20:03.104Z,960.6007
2024-02-11T06:21:01.559Z,960.6007
2024-02-11T06:22:03.354Z,960.6978
2024-02-11T06:23:03.393Z,960.5248
2024-02-11T06:24:01.839Z,960.6089
2024-02-11T06:25:01.956Z,960.7426
2024-02-11T06:26:02.096Z,960.6859
2024-02-11T06:27:02.155Z,960.6952
2024-02-11T06:28:01.262Z,960.6324
2024-02-11T06:29:01.402Z,960.746
2024-02-11T06:30:01.440Z,960.6608
2024-02-11T06:31:03.188Z,960.746
2024-02-11T06:32:01.708Z,960.8495
2024-02-11T06:33:03.628Z,960.7928
2024-02-11T06:34:03.746Z,960.777
2024-02-11T06:35:02.089Z,960.8194
2024-02-11T06:36:03.739Z,960.791
2024-02-11T06:37:02.220Z,960.8467
2024-02-11T06:38:01.559Z,960.8467
2024-02-11T06:39:03.070Z,960.8871
2024-02-11T06:40:01.509Z,960.8303
2024-02-11T06:41:03.347Z,960.8587
2024-02-11T06:42:01.742Z,960.9002
2024-02-11T06:43:01.857Z,960.8707
2024-02-11T06:44:01.979Z,960.8778
2024-02-11T06:45:03.672Z,960.9122
2024-02-11T06:46:03.778Z,960.8794
2024-02-11T06:47:02.322Z,960.8346
2024-02-11T06:48:03.065Z,960.9673
2024-02-11T06:49:03.263Z,960.9296
2024-02-11T06:50:01.667Z,960.9296
2024-02-11T06:51:01.679Z,960.8848
2024-02-11T06:52:01.760Z,960.9984
2024-02-11T06:53:03.606Z,961.0268
2024-02-11T06:54:01.984Z,960.9984
2024-02-11T06:55:03.727Z,960.958
2024-02-11T06:56:02.206Z,960.9176
2024-02-11T06:57:01.292Z,960.9673
2024-02-11T06:58:02.997Z,960.9673
2024-02-11T06:59:03.175Z,960.9957
2024-02-11T07:00:01.601Z,961.1378
2024-02-11T07:01:01.769Z,961.0809
2024-02-11T07:02:03.478Z,961.1946
2024-02-11T07:03:03.583Z,961.0689
2024-02-11T07:04:02.094Z,961.1378
2024-02-11T07:05:02.226Z,961.1165
2024-02-11T07:06:03.913Z,961.0809
2024-02-11T07:07:01.318Z,961.0312
2024-02-11T07:08:01.434Z,961.0312
2024-02-11T07:09:01.582Z,961.0717
2024-02-11T07:10:01.684Z,961.1121
2024-02-11T07:11:01.810Z,961.0553
2024-02-11T07:12:01.886Z,961.0897
2024-02-11T07:13:03.607Z,961.1465
2024-02-11T07:14:02.171Z,961.1181
2024-02-11T07:15:03.816Z,961.0673
2024-02-11T07:16:02.920Z,960.9536
2024-02-11T07:17:01.422Z,961.2509
2024-02-11T07:18:01.587Z,961.1432
2024-02-11T07:19:03.258Z,961.1268
2024-02-11T07:20:03.438Z,961.1388
2024-02-11T07:21:01.820Z,961.2809
2024-02-11T07:22:03.539Z,961.0776
2024-02-11T07:23:02.052Z,961.329
2024-02-11T07:24:02.131Z,961.1372
2024-02-11T07:25:02.253Z,961.2629
2024-02-11T07:26:03.082Z,961.3094
2024-02-11T07:27:01.469Z,961.357
2024-02-11T07:28:01.541Z,961.357
2024-02-11T07:29:03.335Z,961.4948
2024-02-11T07:30:01.736Z,961.5019
2024-02-11T07:31:03.503Z,961.194
2024-02-11T07:32:02.032Z,961.4122
2024-02-11T07:33:03.807Z,961.4122
2024-02-11T07:34:04.059Z,961.4182
2024-02-11T07:35:01.375Z,961.2323
2024-02-11T07:36:03.231Z,961.3581
2024-02-11T07:37:03.147Z,961.2728
2024-02-11T07:38:01.641Z,961.171
2024-02-11T07:39:01.672Z,961.1902
2024-02-11T07:40:03.484Z,961.3373
2024-02-11T07:41:01.989Z,961.2367
2024-02-11T07:42:02.265Z,961.27
2024-02-11T07:43:02.143Z,961.4079
2024-02-11T07:44:03.894Z,961.3855
2024-02-11T07:45:01.389Z,961.3538
2024-02-11T07:46:01.462Z,961.4298
2024-02-11T07:47:01.618Z,961.4134
2024-02-11T07:48:01.766Z,961.3341
2024-02-11T07:49:01.816Z,961.4884
2024-02-11T07:50:02.016Z,961.4283
2024-02-11T07:51:03.597Z,961.4627
2024-02-11T07:52:02.050Z,961.668
2024-02-11T07:53:03.849Z,961.5438
2024-02-11T07:54:01.288Z,961.3861
2024-02-11T07:55:01.405Z,961.627
2024-02-11T07:56:01.516Z,961.627
2024-02-11T07:57:03.256Z,961.6423
2024-02-11T07:58:01.693Z,961.5132
2024-02-11T07:59:01.893Z,961.5537
2024-02-11T08:00:03.583Z,961.6615
2024-02-11T08:01:03.857Z,961.4622
2024-02-11T08:02:02.242Z,961.6857
2024-02-11T08:03:03.948Z,961.8341
2024-02-11T08:04:01.373Z,961.5493
2024-02-11T08:05:01.466Z,961.5554
2024-02-11T08:06:03.184Z,961.6315
2024-02-11T08:07:01.630Z,961.5685
2024-02-11T08:08:03.501Z,961.6824
2024-02-11T08:09:03.574Z,961.66
2024-02-11T08:10:01.980Z,961.597
2024-02-11T08:11:02.077Z,961.6874
2024-02-11T08:12:04.078Z,961.8013
2024-02-11T08:13:01.509Z,961.7454
2024-02-11T08:14:03.075Z,961.4831
2024-02-11T08:15:01.511Z,961.6589
2024-02-11T08:16:01.662Z,961.7728
2024-02-11T08:17:03.418Z,961.5461
2024-02-11T08:18:02.007Z,961.6874
2024-02-11T08:19:01.983Z,961.6091
2024-02-11T08:20:02.127Z,961.734
2024-02-11T08:21:02.139Z,961.7806
2024-02-11T08:22:03.992Z,961.8945
2024-02-11T08:23:01.393Z,961.7998
2024-02-11T08:24:03.099Z,961.8343
2024-02-11T08:25:03.225Z,961.8973
2024-02-11T08:26:03.407Z,961.7111
2024-02-11T08:27:03.417Z,961.716
2024-02-11T08:28:03.488Z,961.6377
2024-02-11T08:29:03.678Z,961.789
2024-02-11T08:30:03.726Z,961.675
2024-02-11T08:31:03.816Z,961.789
2024-02-11T08:32:02.962Z,961.789
2024-02-11T08:33:03.106Z,961.7594
2024-02-11T08:34:03.208Z,961.7939
2024-02-11T08:35:03.253Z,961.7441
2024-02-11T08:36:01.673Z,961.6931
2024-02-11T08:37:03.423Z,961.7562
2024-02-11T08:38:03.567Z,961.6422
2024-02-11T08:39:02.016Z,961.8822
2024-02-11T08:40:03.757Z,961.7113
2024-02-11T08:41:02.244Z,961.7967
2024-02-11T08:42:01.315Z,961.7875
2024-02-11T08:43:01.369Z,961.7305
2024-02-11T08:44:01.532Z,961.6735
2024-02-11T08:45:01.642Z,961.7305
2024-02-11T08:46:03.389Z,961.8637
2024-02-11T08:47:01.924Z,961.7212
2024-02-11T08:48:03.625Z,961.7212
2024-02-11T08:49:03.806Z,961.8462
2024-02-11T08:50:03.932Z,961.724
2024-02-11T08:51:02.815Z,961.8419
2024-02-11T08:52:01.355Z,961.9274
2024-02-11T08:53:01.461Z,961.7849
2024-02-11T08:54:01.563Z,961.9691
2024-02-11T08:55:01.701Z,961.9741
2024-02-11T08:56:03.575Z,961.917
2024-02-11T08:57:03.679Z,961.8885
2024-02-11T08:58:02.001Z,961.9302
2024-02-11T08:59:02.120Z,961.7877
2024-02-11T09:00:03.876Z,961.9933
2024-02-11T09:01:01.345Z,961.9933
2024-02-11T09:02:01.541Z,961.8283
2024-02-11T09:03:03.147Z,961.7713
2024-02-11T09:04:01.656Z,961.9829
2024-02-11T09:05:02.242Z,961.9544
2024-02-11T09:06:02.077Z,962.0175
2024-02-11T09:07:01.949Z,962.0877
2024-02-11T09:08:02.086Z,961.8974
2024-02-11T09:09:02.164Z,962.0909
2024-02-11T09:10:03.882Z,962.0218
2024-02-11T09:11:03.110Z,962.0849
2024-02-11T09:12:03.145Z,962.0685
2024-02-11T09:13:03.198Z,962.1255
2024-02-11T09:14:01.681Z,961.8974
2024-02-11T09:15:03.414Z,962.0745
2024-02-11T09:16:03.517Z,961.9441
2024-02-11T09:17:02.043Z,961.9501
2024-02-11T09:18:02.250Z,962.1415
2024-02-11T09:19:02.356Z,962.0428
2024-02-11T09:20:02.965Z,961.9989
2024-02-11T09:21:01.391Z,962.0845
2024-02-11T09:22:01.520Z,962.0577
2024-02-11T09:23:03.286Z,962.1148
2024-02-11T09:24:01.712Z,962.0292
2024-02-11T09:25:01.866Z,962.1208
2024-02-11T09:26:01.985Z,962.0292
2024-02-11T09:27:02.056Z,962.1433
2024-02-11T09:28:02.163Z,962.0994
2024-02-11T09:29:03.915Z,962.2321
2024-02-11T09:30:03.012Z,962.2774
2024-02-11T09:31:03.136Z,962.1433
2024-02-11T09:32:03.282Z,962.1433
2024-02-11T09:33:01.680Z,962.1903
2024-02-11T09:34:03.454Z,962.1433
2024-02-11T09:35:01.967Z,962.1433
2024-02-11T09:36:01.971Z,962.2035
2024-02-11T09:37:03.736Z,962.2774
2024-02-11T09:38:02.164Z,962.1761
2024-02-11T09:39:02.948Z,962.1476
2024-02-11T09:40:01.355Z,962.3387
2024-02-11T09:41:01.514Z,962.2816
2024-02-11T09:42:01.577Z,962.2816
2024-02-11T09:43:01.756Z,962.3387
2024-02-11T09:44:01.889Z,962.3102
2024-02-11T09:45:03.505Z,962.4955
2024-02-11T09:46:03.691Z,962.3629
2024-02-11T09:47:03.984Z,962.2249
2024-02-11T09:48:02.280Z,962.4332
2024-02-11T09:49:03.003Z,962.3465
2024-02-11T09:50:01.510Z,962.4168
2024-02-11T09:51:01.742Z,962.3883
2024-02-11T09:52:04.849Z,962.3658
2024-02-11T09:53:03.426Z,962.4574
2024-02-11T09:54:01.855Z,962.3658
2024-02-11T09:55:02.078Z,962.3883
2024-02-11T09:56:03.762Z,962.4036
2024-02-11T09:57:03.815Z,962.3476
2024-02-11T09:58:02.930Z,962.4617
2024-02-11T09:59:03.031Z,962.5016
2024-02-11T10:00:01.476Z,962.4485
2024-02-11T10:01:01.699Z,962.4955
2024-02-11T10:02:03.435Z,962.4485
2024-02-11T10:03:03.496Z,962.42
2024-02-11T10:04:01.912Z,962.5555
2024-02-11T10:05:02.260Z,962.3779
2024-02-11T10:06:03.900Z,962.5359
2024-02-11T10:07:03.877Z,962.4093
2024-02-11T10:08:01.361Z,962.4785
2024-02-11T10:09:01.458Z,962.5306
2024-02-11T10:10:01.513Z,962.4804
2024-02-11T10:11:03.293Z,962.4579
2024-02-11T10:12:01.745Z,962.4458
2024-02-11T10:13:03.505Z,962.4233
2024-02-11T10:14:03.618Z,962.607
2024-02-11T10:15:03.733Z,962.4518
2024-02-11T10:16:03.818Z,962.607
2024-02-11T10:17:02.946Z,962.4928
2024-02-11T10:18:03.134Z,962.556
2024-02-11T10:19:01.506Z,962.4804
2024-02-11T10:20:03.275Z,962.4764
2024-02-11T10:21:01.666Z,962.5182
2024-02-11T10:22:14.502Z,962.7179
2024-02-11T10:23:01.976Z,962.7525
2024-02-11T10:24:02.023Z,962.5182
2024-02-11T10:25:03.760Z,962.5528
2024-02-11T10:26:02.212Z,962.6159
2024-02-11T10:27:01.323Z,962.6762
2024-02-11T10:28:01.418Z,962.6038
2024-02-11T10:29:03.241Z,962.505
2024-02-11T10:30:01.651Z,962.6762
2024-02-11T10:31:01.724Z,962.6701
2024-02-11T10:32:03.516Z,962.6762
2024-02-11T10:33:03.695Z,962.6038
2024-02-11T10:34:03.898Z,962.7047
2024-02-11T10:35:04.136Z,962.7557
2024-02-11T10:36:02.846Z,962.7179
2024-02-11T10:37:01.450Z,962.8381
2024-02-11T10:38:01.492Z,962.7811
2024-02-11T10:39:01.582Z,962.7525
2024-02-11T10:40:01.711Z,962.7872
2024-02-11T10:41:03.472Z,962.8564
2024-02-11T10:42:01.900Z,962.7525
2024-02-11T10:43:03.684Z,962.8096
2024-02-11T10:44:02.160Z,962.7872
2024-02-11T10:45:03.845Z,962.673
2024-02-11T10:46:02.995Z,962.8442
2024-02-11T10:47:03.109Z,962.6281
2024-02-11T10:48:03.279Z,962.7769
2024-02-11T10:49:03.317Z,962.6281
2024-02-11T10:50:03.404Z,962.6566
2024-02-11T10:51:01.823Z,962.6281
2024-02-11T10:52:02.021Z,962.6973
2024-02-11T10:53:03.695Z,962.8564
2024-02-11T10:54:03.776Z,962.9256
2024-02-11T10:55:02.916Z,962.7544
2024-02-11T10:56:03.017Z,962.7259
2024-02-11T10:57:03.123Z,962.6402
2024-02-11T10:58:03.231Z,962.7544
2024-02-11T10:59:01.680Z,962.8176
2024-02-11T11:00:01.834Z,962.6524
2024-02-11T11:01:01.922Z,962.8236
2024-02-11T11:02:03.707Z,962.6524
2024-02-11T11:03:02.184Z,962.8704
2024-02-11T11:04:02.279Z,962.6941
2024-02-11T11:05:03.101Z,962.6085
2024-02-11T11:06:03.071Z,962.8308
2024-02-11T11:07:03.138Z,962.8022
2024-02-11T11:08:03.274Z,962.6238
2024-02-11T11:09:01.722Z,962.7919
2024-02-11T11:10:01.852Z,962.6492
2024-02-11T11:11:02.009Z,962.798
2024-02-11T11:12:02.037Z,962.7063
2024-02-11T11:13:02.113Z,962.6492
2024-02-11T11:14:03.954Z,962.7185
2024-02-11T11:15:01.357Z,962.7949
2024-02-11T11:16:05.346Z,962.7949
2024-02-11T11:17:01.551Z,962.7949
2024-02-11T11:18:03.511Z,962.7949
2024-02-11T11:19:03.622Z,962.7949
2024-02-11T11:20:01.909Z,962.7949
2024-02-11T11:21:03.636Z,962.7949
2024-02-11T11:22:02.093Z,962.6928
2024-02-11T11:23:04.236Z,962.6265
2024-02-11T11:24:01.301Z,962.6704
2024-02-11T11:25:03.036Z,962.5694
2024-02-11T11:26:01.514Z,962.5694
2024-02-11T11:27:03.227Z,962.609
2024-02-11T11:28:03.327Z,962.7436
2024-02-11T11:29:03.470Z,962.5591
2024-02-11T11:30:02.004Z,962.6294
2024-02-11T11:31:02.024Z,962.5334
2024-02-11T11:32:03.796Z,962.517
2024-02-11T11:33:04.023Z,962.4413
2024-02-11T11:34:01.392Z,962.6027
2024-02-11T11:35:01.459Z,962.4935
2024-02-11T11:36:03.223Z,962.5567
2024-02-11T11:37:03.270Z,962.5403
2024-02-11T11:38:01.793Z,962.5474
2024-02-11T11:39:03.555Z,962.7085
2024-02-11T11:40:01.978Z,962.5085
2024-02-11T11:41:02.151Z,962.4892
2024-02-11T11:42:03.805Z,962.5942
2024-02-11T11:43:02.914Z,962.6228
2024-02-11T11:44:03.026Z,962.6574
2024-02-11T11:45:01.538Z,962.5564
2024-02-11T11:46:03.243Z,962.6135
2024-02-11T11:47:01.707Z,962.6767